Air Navigation Services of Czech Republic
Airport: LKLN Updated:  03.12.2021 18:22:28  UTC
 METAR LKLN 03.12. 18:30 ...
METAR LKLN 031830Z AUTO 21005KT 190V250 9999 FEW037 BKN240 M02/M05 Q1012=